Time;durP1;ratioP1;P1;durP2;ratioP2;P2;SDS_P1;SDS_P2;PMS_P1;PMS_P2;Temp;Humidity;BMP_temperature;BMP_pressure;BME280_temperature;BME280_humidity;BME280_pressure;Samples;Min_cycle;Max_cycle;Signal;HPM_P1;HPM_P2
2023/08/20 00:01:12;;;;;;;20.05;12.10;;;22.10;91.20;;;;;;5023174;28;20048;-76
2023/08/20 00:03:40;;;;;;;18.88;11.65;;;22.10;91.30;;;;;;5025880;28;20681;-75
2023/08/20 00:06:07;;;;;;;20.55;12.25;;;22.00;91.80;;;;;;5021658;28;20552;-76
2023/08/20 00:08:34;;;;;;;22.58;11.55;;;22.00;92.10;;;;;;5022528;28;20088;-76
2023/08/20 00:11:02;;;;;;;21.70;12.10;;;21.90;92.30;;;;;;5029658;28;20045;-76
2023/08/20 00:13:29;;;;;;;19.88;11.88;;;21.90;92.70;;;;;;5032487;28;20053;-80
2023/08/20 00:15:56;;;;;;;23.65;11.85;;;21.80;92.90;;;;;;5024973;28;20053;-80
2023/08/20 00:18:23;;;;;;;25.33;11.55;;;21.80;92.90;;;;;;5028680;28;20041;-80
2023/08/20 00:20:50;;;;;;;22.58;13.23;;;21.70;93.00;;;;;;5019010;28;20041;-80
2023/08/20 00:23:18;;;;;;;26.15;15.25;;;21.70;93.10;;;;;;5022734;28;20055;-80
2023/08/20 00:25:45;;;;;;;24.55;13.88;;;21.60;93.30;;;;;;5018910;28;20077;-80
2023/08/20 00:28:12;;;;;;;18.45;11.55;;;21.60;93.80;;;;;;5027047;28;20402;-80
2023/08/20 00:30:39;;;;;;;20.98;13.27;;;21.60;94.00;;;;;;5028311;28;20041;-80
2023/08/20 00:33:06;;;;;;;22.48;12.90;;;21.50;94.10;;;;;;5026208;28;20060;-80
2023/08/20 00:35:33;;;;;;;22.70;13.60;;;21.50;94.40;;;;;;5029658;28;20045;-80
2023/08/20 00:37:59;;;;;;;27.77;13.18;;;21.40;94.50;;;;;;5026868;28;20580;-80
2023/08/20 00:40:26;;;;;;;23.13;12.93;;;21.40;94.60;;;;;;5026725;28;20111;-80
2023/08/20 00:42:53;;;;;;;26.85;13.68;;;21.40;94.80;;;;;;5032824;28;20052;-80
2023/08/20 00:45:20;;;;;;;24.77;13.65;;;21.30;95.10;;;;;;5035889;28;20088;-80
2023/08/20 00:47:48;;;;;;;26.48;13.68;;;21.30;95.40;;;;;;5025391;28;20091;-80
2023/08/20 00:50:16;;;;;;;22.23;13.88;;;21.30;95.60;;;;;;5023535;28;20049;-80
2023/08/20 00:52:43;;;;;;;23.63;13.85;;;21.20;95.80;;;;;;5025561;28;20563;-80
2023/08/20 00:55:12;;;;;;;20.20;13.60;;;21.20;96.10;;;;;;5026811;28;20119;-80
2023/08/20 00:57:40;;;;;;;24.92;14.23;;;21.10;96.40;;;;;;5026197;28;20567;-80
2023/08/20 01:00:09;;;;;;;24.23;14.52;;;21.10;96.40;;;;;;5043520;28;20037;-80
2023/08/20 01:02:37;;;;;;;23.15;14.05;;;21.00;96.50;;;;;;5025778;28;20061;-80
2023/08/20 01:05:07;;;;;;;27.23;14.07;;;21.00;96.80;;;;;;5027116;28;20053;-80
2023/08/20 01:08:06;;;;;;;27.02;14.65;;;20.90;96.60;;;;;;5022707;28;20801;-80
2023/08/20 01:10:52;;;;;;;31.50;14.73;;;20.90;97.00;;;;;;5046543;28;20053;-80
2023/08/20 01:13:19;;;;;;;24.75;13.90;;;20.80;97.10;;;;;;5027287;28;20050;-80
2023/08/20 01:15:46;;;;;;;28.13;13.73;;;20.80;97.40;;;;;;5029802;28;20118;-80
2023/08/20 01:18:13;;;;;;;24.35;14.63;;;20.80;97.60;;;;;;5031687;28;20068;-80
2023/08/20 01:20:46;;;;;;;23.20;14.63;;;20.70;97.70;;;;;;5025902;28;20102;-80
2023/08/20 01:23:52;;;;;;;29.88;15.30;;;20.70;97.80;;;;;;5025770;28;20038;-80
2023/08/20 01:26:39;;;;;;;25.08;15.05;;;20.70;97.80;;;;;;5017787;28;20050;-80
2023/08/20 01:29:07;;;;;;;27.15;15.02;;;20.60;97.90;;;;;;5023804;28;20107;-80
2023/08/20 01:31:34;;;;;;;30.77;15.52;;;20.60;98.10;;;;;;5022221;28;20797;-80
2023/08/20 01:34:02;;;;;;;26.65;15.80;;;20.60;98.10;;;;;;5022055;28;20053;-80
2023/08/20 01:36:28;;;;;;;30.38;16.70;;;20.50;98.30;;;;;;5018381;28;20077;-79
2023/08/20 01:38:55;;;;;;;24.70;14.85;;;20.50;98.50;;;;;;5029448;28;20045;-80
2023/08/20 01:41:22;;;;;;;27.67;15.40;;;20.50;98.50;;;;;;5022274;28;20625;-75
2023/08/20 01:43:49;;;;;;;27.48;15.10;;;20.40;98.50;;;;;;5019032;28;20053;-76
2023/08/20 01:46:16;;;;;;;31.88;15.90;;;20.40;98.50;;;;;;5019352;28;20568;-76
2023/08/20 01:48:43;;;;;;;33.13;16.17;;;20.40;98.80;;;;;;5018315;28;20076;-76
2023/08/20 01:51:10;;;;;;;34.53;17.10;;;20.40;99.00;;;;;;5020954;28;20163;-76
2023/08/20 01:53:37;;;;;;;27.05;16.42;;;20.40;99.10;;;;;;5020765;28;20054;-76
2023/08/20 01:56:04;;;;;;;36.85;16.00;;;20.30;99.10;;;;;;5022386;28;20620;-76
2023/08/20 01:58:32;;;;;;;36.88;17.55;;;20.30;99.10;;;;;;5022973;28;20131;-75
2023/08/20 02:00:59;;;;;;;28.05;16.40;;;20.30;99.50;;;;;;5033655;28;20057;-75
2023/08/20 02:03:25;;;;;;;30.20;15.90;;;20.30;99.40;;;;;;5023520;28;20060;-75
2023/08/20 02:05:52;;;;;;;29.38;17.52;;;20.20;99.60;;;;;;5022481;28;20107;-76
2023/08/20 02:08:20;;;;;;;37.58;17.75;;;20.20;99.60;;;;;;5021755;28;20073;-76
2023/08/20 02:10:46;;;;;;;42.88;18.90;;;20.20;99.90;;;;;;5036389;28;20140;-76
2023/08/20 02:13:13;;;;;;;34.03;19.48;;;20.30;100.00;;;;;;5018623;28;20045;-75
2023/08/20 02:15:40;;;;;;;50.50;22.38;;;20.30;100.00;;;;;;5020894;28;20463;-76
2023/08/20 02:18:07;;;;;;;42.38;20.85;;;20.40;100.00;;;;;;5022365;28;20063;-76
2023/08/20 02:20:35;;;;;;;46.35;22.48;;;20.50;99.80;;;;;;5014722;28;20842;-75
2023/08/20 02:23:02;;;;;;;50.13;23.10;;;20.50;99.50;;;;;;5020325;28;20049;-75
2023/08/20 02:25:29;;;;;;;49.47;23.10;;;20.50;99.50;;;;;;5017618;28;20406;-75
2023/08/20 02:27:56;;;;;;;50.30;24.38;;;20.60;99.30;;;;;;5025349;28;20111;-76
2023/08/20 02:30:22;;;;;;;50.95;23.00;;;20.60;99.50;;;;;;5025126;28;20049;-76
2023/08/20 02:32:49;;;;;;;59.10;25.17;;;20.60;99.30;;;;;;5022128;28;20053;-76
2023/08/20 02:35:16;;;;;;;62.58;25.30;;;20.60;99.50;;;;;;5017551;28;20046;-75
2023/08/20 02:37:43;;;;;;;62.35;25.70;;;20.60;99.60;;;;;;5018559;28;20041;-76
2023/08/20 02:40:11;;;;;;;52.75;23.85;;;20.60;99.60;;;;;;5022920;28;20671;-76
2023/08/20 02:42:38;;;;;;;60.70;24.38;;;20.70;99.60;;;;;;5021459;28;20111;-76
2023/08/20 02:45:06;;;;;;;59.67;24.00;;;20.70;99.30;;;;;;5019654;28;20486;-76
2023/08/20 02:47:32;;;;;;;52.50;23.73;;;20.80;99.00;;;;;;5023761;28;20049;-76
2023/08/20 02:50:00;;;;;;;58.13;25.98;;;20.70;99.10;;;;;;5021288;28;20046;-76
2023/08/20 02:52:27;;;;;;;64.32;24.70;;;20.80;99.00;;;;;;5022411;28;20127;-76
2023/08/20 02:54:54;;;;;;;51.78;22.35;;;20.80;98.80;;;;;;5023202;28;20073;-76
2023/08/20 02:57:21;;;;;;;54.67;22.95;;;20.80;99.00;;;;;;5020625;28;20126;-76
2023/08/20 02:59:48;;;;;;;53.17;21.33;;;20.80;98.70;;;;;;5027411;28;20077;-76
2023/08/20 03:02:15;;;;;;;54.58;23.30;;;20.80;98.40;;;;;;5024510;28;20612;-75
2023/08/20 03:04:41;;;;;;;46.85;20.50;;;20.80;98.30;;;;;;5021212;28;20167;-76
2023/08/20 03:07:08;;;;;;;52.85;22.27;;;20.80;98.30;;;;;;5023933;28;20045;-76
2023/08/20 03:09:35;;;;;;;50.95;22.58;;;20.90;97.70;;;;;;5022704;28;20478;-76
2023/08/20 03:12:02;;;;;;;47.60;20.48;;;20.90;97.60;;;;;;5023491;28;20049;-76
2023/08/20 03:14:29;;;;;;;42.95;20.58;;;20.80;97.60;;;;;;5022832;28;20046;-76
2023/08/20 03:16:56;;;;;;;47.00;21.48;;;20.80;97.40;;;;;;5021880;28;20046;-76
2023/08/20 03:19:23;;;;;;;34.40;18.23;;;20.90;97.20;;;;;;5022425;28;20052;-76
2023/08/20 03:21:50;;;;;;;44.38;19.52;;;20.90;97.00;;;;;;5023568;28;20045;-75
2023/08/20 03:24:16;;;;;;;40.38;17.17;;;20.90;96.40;;;;;;5020100;28;20406;-76
2023/08/20 03:26:46;;;;;;;36.85;18.42;;;20.90;96.60;;;;;;5022253;28;20049;-75
2023/08/20 03:29:13;;;;;;;45.03;18.30;;;20.90;96.60;;;;;;5023914;28;20832;-76
2023/08/20 03:31:39;;;;;;;42.05;17.17;;;20.90;96.20;;;;;;5020392;28;20046;-76
2023/08/20 03:34:08;;;;;;;35.45;17.83;;;20.90;95.90;;;;;;5020283;28;20064;-76
2023/08/20 03:36:35;;;;;;;46.45;18.02;;;20.90;95.90;;;;;;5023411;28;20049;-76
2023/08/20 03:39:58;;;;;;;29.35;16.30;;;20.90;95.50;;;;;;5026204;28;20095;-75
2023/08/20 03:42:25;;;;;;;35.22;16.65;;;20.80;95.60;;;;;;5028656;28;20071;-79
2023/08/20 03:44:52;;;;;;;42.33;18.10;;;20.80;95.50;;;;;;5019107;28;20104;-80
2023/08/20 03:47:20;;;;;;;37.85;18.25;;;20.90;95.20;;;;;;5024152;28;20782;-79
2023/08/20 03:49:50;;;;;;;34.75;16.83;;;20.80;94.60;;;;;;5037052;28;20057;-80
2023/08/20 03:52:17;;;;;;;32.08;16.48;;;20.70;94.60;;;;;;5022805;28;20053;-79
2023/08/20 03:54:44;;;;;;;33.90;16.30;;;20.70;94.50;;;;;;5024527;28;20087;-80
2023/08/20 03:57:11;;;;;;;34.95;17.27;;;20.70;94.70;;;;;;5025337;28;20077;-80
2023/08/20 03:59:37;;;;;;;35.15;16.48;;;20.70;94.20;;;;;;5029342;28;20068;-80
2023/08/20 04:02:04;;;;;;;38.67;17.25;;;20.60;94.40;;;;;;5031430;28;20046;-80
2023/08/20 04:04:31;;;;;;;35.25;16.58;;;20.60;94.00;;;;;;5028211;28;20085;-79
2023/08/20 04:06:58;;;;;;;31.88;16.17;;;20.60;94.10;;;;;;5027445;28;20593;-80
2023/08/20 04:09:25;;;;;;;34.03;16.15;;;20.60;93.90;;;;;;5020208;28;20061;-80
2023/08/20 04:11:52;;;;;;;30.60;15.70;;;20.70;93.70;;;;;;5021021;28;20057;-79
2023/08/20 04:14:19;;;;;;;27.15;14.88;;;20.60;93.60;;;;;;5025883;28;20136;-79
2023/08/20 04:16:45;;;;;;;24.05;14.30;;;20.60;93.20;;;;;;5026739;28;20095;-80
2023/08/20 04:19:12;;;;;;;27.00;14.35;;;20.60;93.50;;;;;;5025135;28;20045;-79
2023/08/20 04:21:41;;;;;;;31.70;15.45;;;20.60;93.40;;;;;;5026976;28;20045;-80
2023/08/20 04:24:08;;;;;;;39.83;14.45;;;20.60;93.50;;;;;;5027152;28;20457;-79
2023/08/20 04:26:35;;;;;;;34.05;15.30;;;20.60;93.30;;;;;;5035138;28;20501;-80
2023/08/20 04:29:02;;;;;;;26.27;13.07;;;20.60;93.10;;;;;;5017864;28;20152;-79
2023/08/20 04:31:29;;;;;;;28.20;14.48;;;20.60;93.40;;;;;;5024337;28;20053;-80
2023/08/20 04:33:56;;;;;;;32.88;14.93;;;20.60;93.20;;;;;;5031284;28;20634;-79
2023/08/20 04:36:22;;;;;;;32.30;14.35;;;20.60;93.30;;;;;;5029847;28;20045;-79
2023/08/20 04:38:50;;;;;;;27.30;14.55;;;20.50;93.30;;;;;;5023433;28;20053;-79
2023/08/20 04:41:17;;;;;;;30.75;15.30;;;20.50;93.30;;;;;;5021853;28;20038;-79
2023/08/20 04:43:44;;;;;;;29.58;13.30;;;20.40;93.40;;;;;;5024703;28;20073;-80
2023/08/20 04:46:11;;;;;;;26.80;13.55;;;20.50;93.40;;;;;;5028693;28;20051;-80
2023/08/20 04:48:38;;;;;;;29.27;14.20;;;20.50;93.00;;;;;;5031004;28;20061;-80
2023/08/20 04:51:06;;;;;;;28.55;13.68;;;20.50;93.00;;;;;;5036863;28;20061;-80
2023/08/20 04:53:33;;;;;;;29.83;14.15;;;20.50;92.70;;;;;;5043503;28;20133;-80
2023/08/20 04:56:00;;;;;;;29.63;13.77;;;20.50;92.80;;;;;;5024638;28;20037;-80
2023/08/20 04:58:27;;;;;;;30.67;13.70;;;20.50;92.70;;;;;;5025150;28;20051;-80
2023/08/20 05:00:54;;;;;;;33.95;14.60;;;20.50;92.80;;;;;;5026775;28;20137;-80
2023/08/20 05:03:20;;;;;;;28.13;13.18;;;20.50;93.00;;;;;;5026269;28;20049;-80
2023/08/20 05:05:51;;;;;;;33.10;13.15;;;20.50;92.90;;;;;;5021104;28;21355;-80
2023/08/20 05:08:18;;;;;;;28.77;13.25;;;20.50;92.70;;;;;;5024807;28;20132;-80
2023/08/20 05:10:44;;;;;;;29.00;13.77;;;20.50;92.70;;;;;;5023108;28;20060;-80
2023/08/20 05:13:11;;;;;;;27.77;14.30;;;20.50;92.90;;;;;;5022312;28;20049;-80
2023/08/20 05:15:38;;;;;;;29.55;14.73;;;20.50;93.00;;;;;;5028637;28;20155;-80
2023/08/20 05:18:05;;;;;;;29.25;14.10;;;20.60;92.70;;;;;;5029588;28;20276;-80
2023/08/20 05:20:32;;;;;;;28.35;13.63;;;20.60;93.10;;;;;;5024569;28;20398;-79
2023/08/20 05:22:59;;;;;;;30.63;13.70;;;20.60;93.20;;;;;;5025777;28;20048;-80
2023/08/20 05:25:26;;;;;;;30.60;13.88;;;20.60;93.30;;;;;;5027724;28;20174;-80
2023/08/20 05:27:53;;;;;;;29.10;12.85;;;20.70;93.10;;;;;;5025457;28;20078;-80
2023/08/20 05:30:20;;;;;;;32.75;15.48;;;20.80;92.60;;;;;;5021898;28;20045;-80
2023/08/20 05:32:47;;;;;;;32.72;13.38;;;20.90;92.30;;;;;;5045070;28;20163;-80
2023/08/20 05:35:14;;;;;;;32.88;13.88;;;20.80;92.20;;;;;;5028571;28;20068;-79
2023/08/20 05:37:41;;;;;;;37.85;14.45;;;20.80;91.30;;;;;;5046430;28;20060;-79
2023/08/20 05:40:08;;;;;;;30.70;14.38;;;20.80;91.50;;;;;;5021840;28;20053;-80
2023/08/20 05:42:35;;;;;;;33.08;13.77;;;20.80;91.20;;;;;;5023103;28;20049;-80
2023/08/20 05:45:03;;;;;;;32.42;13.15;;;20.80;91.10;;;;;;5025570;28;20068;-80
2023/08/20 05:47:30;;;;;;;32.95;14.75;;;20.80;91.80;;;;;;5025863;28;20081;-80
2023/08/20 05:49:57;;;;;;;38.22;15.52;;;20.80;91.10;;;;;;5027511;28;20049;-80
2023/08/20 05:52:24;;;;;;;31.08;15.02;;;20.60;91.20;;;;;;5027593;28;20162;-80
2023/08/20 05:54:50;;;;;;;40.30;14.98;;;20.50;91.70;;;;;;5026936;28;20088;-80
2023/08/20 05:57:17;;;;;;;39.05;15.73;;;20.50;91.90;;;;;;5025093;28;20041;-80
2023/08/20 05:59:44;;;;;;;35.40;15.70;;;20.50;92.40;;;;;;5028679;28;20046;-79
2023/08/20 06:02:16;;;;;;;30.73;13.00;;;20.50;91.50;;;;;;5025672;28;20053;-80
2023/08/20 06:04:43;;;;;;;29.75;12.75;;;20.60;90.40;;;;;;5021135;28;20074;-80
2023/08/20 06:07:10;;;;;;;32.08;13.45;;;20.80;89.10;;;;;;5024017;28;20088;-80
2023/08/20 06:09:37;;;;;;;25.35;12.00;;;20.80;88.80;;;;;;5028087;28;20096;-80
2023/08/20 06:12:04;;;;;;;26.00;11.23;;;20.80;88.10;;;;;;5025242;28;20049;-80
2023/08/20 06:14:31;;;;;;;22.92;10.68;;;20.70;88.10;;;;;;5030200;28;20513;-79
2023/08/20 06:16:57;;;;;;;22.98;11.35;;;20.80;87.60;;;;;;5037418;28;20115;-80
2023/08/20 06:19:25;;;;;;;21.95;9.80;;;20.70;87.40;;;;;;5029334;28;20049;-80
2023/08/20 06:21:52;;;;;;;28.50;9.52;;;20.70;86.70;;;;;;5029476;28;20124;-80
2023/08/20 06:24:19;;;;;;;23.42;9.30;;;20.70;87.40;;;;;;5030986;28;20152;-80
2023/08/20 06:26:47;;;;;;;18.42;8.60;;;20.80;85.20;;;;;;5021046;28;20508;-80
2023/08/20 06:29:14;;;;;;;18.48;8.82;;;20.80;84.70;;;;;;5027424;28;20445;-80
2023/08/20 06:31:41;;;;;;;20.00;8.10;;;20.60;84.80;;;;;;5032306;28;20135;-80
2023/08/20 06:34:08;;;;;;;26.48;9.40;;;20.60;85.80;;;;;;5025583;28;20059;-81
2023/08/20 06:36:35;;;;;;;17.42;7.60;;;20.70;86.10;;;;;;5042255;28;20760;-80
2023/08/20 06:39:02;;;;;;;20.52;7.55;;;20.80;85.40;;;;;;5043514;28;20132;-80
2023/08/20 06:41:29;;;;;;;13.32;7.60;;;20.80;84.70;;;;;;5025452;28;20140;-80
2023/08/20 06:43:55;;;;;;;16.92;7.28;;;20.80;84.90;;;;;;5029298;28;20111;-80
2023/08/20 06:46:23;;;;;;;16.85;7.55;;;20.80;83.90;;;;;;5029568;28;20049;-80
2023/08/20 06:48:50;;;;;;;16.58;7.30;;;20.80;84.20;;;;;;5025162;28;20060;-80
2023/08/20 06:51:21;;;;;;;15.57;6.93;;;20.90;84.00;;;;;;5025763;28;20080;-81
2023/08/20 06:53:48;;;;;;;17.08;6.95;;;20.90;83.50;;;;;;5037909;28;20073;-80
2023/08/20 06:56:15;;;;;;;17.63;7.13;;;21.00;84.40;;;;;;5024673;28;20037;-80
2023/08/20 06:58:42;;;;;;;14.88;6.38;;;21.20;83.50;;;;;;5027249;28;20125;-80
2023/08/20 07:01:10;;;;;;;18.70;6.93;;;21.40;82.90;;;;;;5030674;28;20056;-81
2023/08/20 07:03:39;;;;;;;10.68;6.22;;;21.50;81.70;;;;;;5029015;28;20053;-80
2023/08/20 07:06:06;;;;;;;12.10;5.18;;;21.70;81.90;;;;;;5026354;28;20084;-80
2023/08/20 07:08:33;;;;;;;12.38;5.95;;;21.90;82.10;;;;;;5027445;28;20107;-81
2023/08/20 07:11:00;;;;;;;16.33;6.40;;;22.10;81.20;;;;;;5025911;28;20049;-80
2023/08/20 07:13:27;;;;;;;20.00;6.43;;;22.20;79.60;;;;;;5029135;28;20148;-80
2023/08/20 07:15:54;;;;;;;18.02;6.03;;;22.40;79.90;;;;;;5028191;28;20049;-80
2023/08/20 07:18:21;;;;;;;13.45;5.90;;;22.60;78.20;;;;;;5025293;28;20697;-80
2023/08/20 07:20:49;;;;;;;11.88;5.22;;;22.50;77.80;;;;;;5027818;28;20125;-80
2023/08/20 07:23:16;;;;;;;15.15;6.25;;;22.80;77.90;;;;;;5031356;28;20048;-80
2023/08/20 07:25:44;;;;;;;16.83;5.95;;;22.60;77.40;;;;;;5031355;28;20486;-82
2023/08/20 07:28:11;;;;;;;15.63;5.50;;;22.60;77.40;;;;;;5028260;28;20041;-79
2023/08/20 07:30:38;;;;;;;10.85;5.10;;;22.60;78.10;;;;;;5017534;28;20053;-77
2023/08/20 07:33:06;;;;;;;10.73;5.22;;;22.70;77.60;;;;;;5020890;28;20820;-76
2023/08/20 07:35:35;;;;;;;14.02;5.03;;;23.30;75.60;;;;;;5023067;28;20120;-78
2023/08/20 07:38:02;;;;;;;11.52;4.93;;;23.70;73.80;;;;;;5013403;28;20487;-77
2023/08/20 07:40:29;;;;;;;11.68;4.43;;;23.20;76.20;;;;;;5015627;28;20132;-77
2023/08/20 07:42:58;;;;;;;12.15;4.80;;;23.90;74.20;;;;;;5017875;28;20057;-76
2023/08/20 07:45:25;;;;;;;11.25;3.97;;;24.70;71.90;;;;;;5015787;28;20674;-77
2023/08/20 07:47:52;;;;;;;11.70;4.80;;;25.80;69.90;;;;;;5016346;28;20045;-77
2023/08/20 07:50:19;;;;;;;11.75;4.82;;;26.50;66.30;;;;;;5015922;28;20053;-76
2023/08/20 07:52:46;;;;;;;11.98;5.13;;;26.80;66.60;;;;;;5017320;28;20067;-78
2023/08/20 07:55:13;;;;;;;9.50;4.55;;;26.70;67.50;;;;;;5015613;28;20095;-78
2023/08/20 07:57:40;;;;;;;8.57;4.30;;;26.60;64.50;;;;;;5014053;28;20054;-78
2023/08/20 08:00:07;;;;;;;12.75;4.72;;;25.70;66.70;;;;;;5014926;28;20056;-78
2023/08/20 08:02:34;;;;;;;10.70;5.35;;;25.90;67.80;;;;;;5028976;28;20182;-76
2023/08/20 08:05:01;;;;;;;10.57;4.70;;;26.90;67.20;;;;;;5016106;28;20579;-80
2023/08/20 08:07:28;;;;;;;11.63;5.30;;;27.00;66.50;;;;;;5018709;28;20406;-80
2023/08/20 08:09:55;;;;;;;8.88;5.47;;;26.90;62.80;;;;;;5016825;28;20780;-80
2023/08/20 08:12:22;;;;;;;9.10;5.38;;;25.50;65.40;;;;;;5015824;28;20887;-78
2023/08/20 08:14:48;;;;;;;13.20;5.55;;;25.10;67.60;;;;;;5029257;28;20112;-80
2023/08/20 08:17:15;;;;;;;11.68;5.43;;;25.30;67.90;;;;;;5015960;28;20179;-78
2023/08/20 08:19:42;;;;;;;16.20;6.47;;;25.40;68.20;;;;;;5018140;28;20136;-76
2023/08/20 08:22:09;;;;;;;11.00;5.43;;;24.80;68.10;;;;;;5019068;28;20052;-75
2023/08/20 08:24:36;;;;;;;8.07;4.13;;;25.10;70.20;;;;;;5016058;28;20091;-76
2023/08/20 08:27:03;;;;;;;12.15;5.28;;;25.90;70.10;;;;;;5013532;28;20092;-78
2023/08/20 08:29:30;;;;;;;8.20;4.63;;;26.20;67.20;;;;;;5015191;28;20129;-77
2023/08/20 08:31:56;;;;;;;11.70;4.15;;;25.40;67.10;;;;;;5025054;28;21956;-79
2023/08/20 08:34:23;;;;;;;7.95;3.80;;;25.50;69.70;;;;;;5012564;28;20691;-78
2023/08/20 08:36:50;;;;;;;12.43;4.18;;;26.40;66.30;;;;;;5010831;28;20055;-78
2023/08/20 08:39:17;;;;;;;9.32;3.58;;;26.60;64.10;;;;;;5011851;28;20049;-78
2023/08/20 08:41:49;;;;;;;9.93;4.22;;;26.00;66.90;;;;;;5025838;28;20134;-78
2023/08/20 08:44:16;;;;;;;8.75;3.15;;;26.10;65.20;;;;;;5014453;28;20159;-80
2023/08/20 08:46:43;;;;;;;11.07;4.15;;;26.60;64.80;;;;;;5014323;28;20054;-79
2023/08/20 08:49:10;;;;;;;9.70;3.75;;;26.70;62.50;;;;;;5023501;28;20099;-79
2023/08/20 08:51:38;;;;;;;36.30;15.45;;;27.00;62.20;;;;;;5013827;28;20072;-77
2023/08/20 08:54:07;;;;;;;81.38;39.30;;;26.90;63.40;;;;;;5010678;28;20058;-76
2023/08/20 08:56:34;;;;;;;14.65;6.82;;;27.10;64.60;;;;;;5012769;28;21263;-77
2023/08/20 08:59:01;;;;;;;10.77;4.22;;;27.50;63.20;;;;;;5012605;28;20692;-76
2023/08/20 09:01:27;;;;;;;10.68;3.50;;;27.50;62.20;;;;;;5014803;28;20057;-76
2023/08/20 09:03:57;;;;;;;8.77;3.85;;;27.80;63.00;;;;;;5016102;28;20057;-76
2023/08/20 09:06:25;;;;;;;7.25;3.97;;;28.50;61.00;;;;;;5014678;28;20058;-76
2023/08/20 09:09:04;;;;;;;8.30;3.88;;;28.70;60.20;;;;;;5010848;28;20506;-76
2023/08/20 09:11:35;;;;;;;9.15;4.72;;;29.20;59.30;;;;;;5029632;28;20053;-76
2023/08/20 09:14:02;;;;;;;9.98;3.60;;;29.60;59.00;;;;;;5015451;28;20060;-76
2023/08/20 09:16:32;;;;;;;5.45;3.47;;;30.00;56.60;;;;;;5011219;28;20178;-76
2023/08/20 09:19:01;;;;;;;11.32;3.80;;;29.70;57.00;;;;;;5017114;28;20103;-77
2023/08/20 09:21:29;;;;;;;7.05;2.90;;;29.70;57.90;;;;;;5017290;28;20104;-77
2023/08/20 09:24:02;;;;;;;7.60;2.97;;;29.60;58.30;;;;;;5011256;28;20700;-76
2023/08/20 09:26:29;;;;;;;8.85;3.55;;;30.10;55.90;;;;;;5030120;28;20502;-77
2023/08/20 09:28:56;;;;;;;6.70;3.47;;;30.20;56.10;;;;;;5017187;28;20056;-77
2023/08/20 09:31:38;;;;;;;8.75;3.72;;;29.80;54.40;;;;;;5015772;28;20071;-77
2023/08/20 09:34:05;;;;;;;9.38;3.58;;;29.70;56.70;;;;;;5019588;28;20057;-76
2023/08/20 09:36:34;;;;;;;7.72;3.40;;;29.90;55.00;;;;;;5023349;28;20049;-80
2023/08/20 09:39:02;;;;;;;7.45;3.47;;;30.30;54.90;;;;;;5024278;28;20073;-77
2023/08/20 09:41:30;;;;;;;8.02;3.70;;;30.40;54.00;;;;;;5023699;28;20072;-77
2023/08/20 09:43:58;;;;;;;8.75;3.40;;;30.60;53.70;;;;;;5024398;28;20488;-76
2023/08/20 09:46:28;;;;;;;11.85;4.10;;;30.50;55.90;;;;;;5022231;28;20077;-77
2023/08/20 09:48:58;;;;;;;12.35;4.95;;;30.40;52.40;;;;;;5024425;28;20069;-76
2023/08/20 09:51:28;;;;;;;10.90;4.50;;;30.10;55.50;;;;;;5021274;28;20563;-76
2023/08/20 09:54:18;;;;;;;8.60;4.53;;;29.70;60.00;;;;;;5037897;28;20081;-77
2023/08/20 09:56:51;;;;;;;16.60;5.63;;;29.40;55.80;;;;;;5025606;28;20089;-77
2023/08/20 09:59:18;;;;;;;11.02;5.97;;;28.50;58.50;;;;;;5025149;28;20049;-76
2023/08/20 10:01:47;;;;;;;8.52;5.72;;;29.10;58.90;;;;;;5033387;28;20122;-76
2023/08/20 10:04:17;;;;;;;12.23;5.43;;;29.00;58.20;;;;;;5045877;28;20076;-77
2023/08/20 10:06:44;;;;;;;8.70;4.68;;;29.40;56.60;;;;;;5037496;28;20045;-76
2023/08/20 10:09:11;;;;;;;8.02;4.95;;;29.00;56.50;;;;;;5034308;28;20057;-76
2023/08/20 10:11:39;;;;;;;13.02;5.55;;;29.40;57.50;;;;;;5038746;28;20136;-76
2023/08/20 10:14:06;;;;;;;9.70;5.53;;;29.80;56.70;;;;;;5027697;28;20135;-76
2023/08/20 10:16:33;;;;;;;8.68;4.68;;;29.90;54.90;;;;;;5036768;28;20207;-79
2023/08/20 10:19:05;;;;;;;10.23;4.57;;;30.20;54.70;;;;;;5040113;28;20052;-76
2023/08/20 10:21:32;;;;;;;8.20;4.45;;;30.20;53.80;;;;;;5029943;28;20080;-76
2023/08/20 10:24:09;;;;;;;10.55;4.00;;;30.00;55.90;;;;;;5036760;28;20052;-76
2023/08/20 10:26:36;;;;;;;9.20;4.32;;;30.80;53.20;;;;;;5023916;28;20133;-75
2023/08/20 10:29:39;;;;;;;10.70;4.53;;;30.60;53.60;;;;;;5031971;28;20064;-76
2023/08/20 10:32:09;;;;;;;10.80;4.22;;;30.50;53.60;;;;;;5036451;28;20053;-75
2023/08/20 10:34:38;;;;;;;11.60;4.05;;;30.70;52.60;;;;;;5037605;28;20452;-75
2023/08/20 10:37:15;;;;;;;11.52;4.32;;;30.30;54.50;;;;;;5029233;28;20049;-75
2023/08/20 10:39:46;;;;;;;14.50;5.10;;;30.90;51.40;;;;;;5031713;28;20811;-75
2023/08/20 10:42:19;;;;;;;8.45;4.18;;;30.20;53.10;;;;;;5028296;28;20055;-75
2023/08/20 10:45:08;;;;;;;8.10;4.53;;;31.40;51.90;;;;;;5027289;28;20049;-75
2023/08/20 10:47:48;;;;;;;8.23;4.63;;;31.20;49.60;;;;;;5024836;28;20135;-76
2023/08/20 10:50:19;;;;;;;6.45;4.20;;;30.90;50.50;;;;;;5016767;28;20144;-76
2023/08/20 10:52:54;;;;;;;8.50;4.75;;;30.70;53.40;;;;;;5018432;28;20045;-75
2023/08/20 10:55:24;;;;;;;;;;;31.30;51.50;;;;;;5018225;28;20076;-76
2023/08/20 10:57:59;;;;;;;7.40;4.00;;;31.50;49.80;;;;;;5014335;28;20057;-76
2023/08/20 11:00:28;;;;;;;8.73;3.72;;;32.30;50.70;;;;;;5016670;28;20104;-76
2023/08/20 11:02:55;;;;;;;7.53;4.40;;;32.80;49.30;;;;;;5022381;28;20045;-77
2023/08/20 11:05:22;;;;;;;10.40;4.10;;;33.40;48.60;;;;;;5032262;28;20049;-75
2023/08/20 11:07:50;;;;;;;8.07;3.40;;;33.70;47.60;;;;;;5021246;28;20603;-79
2023/08/20 11:10:17;;;;;;;20.48;4.65;;;33.70;48.50;;;;;;5027217;28;20133;-80
2023/08/20 11:12:46;;;;;;;6.93;3.00;;;33.90;47.00;;;;;;5026067;28;20044;-81
2023/08/20 11:15:13;;;;;;;9.52;2.47;;;33.60;46.30;;;;;;5014936;28;20100;-80
2023/08/20 11:17:58;;;;;;;10.63;2.78;;;33.10;47.90;;;;;;5020092;28;20045;-81
2023/08/20 11:20:25;;;;;;;5.88;2.70;;;32.80;45.90;;;;;;5017459;28;20502;-80
2023/08/20 11:22:52;;;;;;;6.47;2.60;;;32.30;48.70;;;;;;5019533;28;20081;-80
2023/08/20 11:25:19;;;;;;;7.13;2.80;;;33.10;47.50;;;;;;5016829;28;20057;-80
2023/08/20 11:27:46;;;;;;;8.02;2.80;;;32.80;47.50;;;;;;5018296;28;20140;-79
2023/08/20 11:30:13;;;;;;;5.40;2.47;;;33.40;47.10;;;;;;5012544;28;20059;-82
2023/08/20 11:32:40;;;;;;;7.05;2.42;;;33.10;46.90;;;;;;5024213;28;20144;-82
2023/08/20 11:35:08;;;;;;;6.22;2.35;;;33.00;47.80;;;;;;5015183;28;20060;-79
2023/08/20 11:37:35;;;;;;;5.18;2.00;;;33.00;48.10;;;;;;5012435;28;20624;-80
2023/08/20 11:40:03;;;;;;;6.43;2.13;;;33.40;46.00;;;;;;5014573;28;20046;-81
2023/08/20 11:42:30;;;;;;;4.30;2.10;;;33.70;46.10;;;;;;5024647;28;20103;-82
2023/08/20 11:44:57;;;;;;;8.40;2.10;;;34.10;44.40;;;;;;5023924;28;20493;-82
2023/08/20 11:47:24;;;;;;;5.13;2.08;;;34.10;44.30;;;;;;5024025;28;20796;-82
2023/08/20 11:50:05;;;;;;;4.28;1.92;;;35.40;43.60;;;;;;5016836;28;20055;-84
2023/08/20 11:52:33;;;;;;;3.20;1.90;;;34.90;42.50;;;;;;5024488;28;20060;-84
2023/08/20 11:55:01;;;;;;;7.95;2.10;;;35.30;44.20;;;;;;5021721;28;20053;-80
2023/08/20 11:57:31;;;;;;;3.67;1.80;;;36.00;42.70;;;;;;5015994;28;21276;-80
2023/08/20 12:00:13;;;;;;;5.88;2.20;;;35.30;42.60;;;;;;5015391;28;20620;-80
2023/08/20 12:02:43;;;;;;;5.43;2.17;;;35.40;42.60;;;;;;5019507;28;20115;-80
2023/08/20 12:05:10;;;;;;;5.15;1.88;;;34.60;43.40;;;;;;5017522;28;20045;-81
2023/08/20 12:07:37;;;;;;;7.88;2.05;;;35.80;44.00;;;;;;5021938;28;20049;-80
2023/08/20 12:10:21;;;;;;;5.35;2.25;;;35.90;42.70;;;;;;5017553;28;20144;-78
2023/08/20 12:12:52;;;;;;;5.78;2.25;;;35.70;42.90;;;;;;5034837;28;20638;-79
2023/08/20 12:15:19;;;;;;;8.13;2.10;;;36.20;41.80;;;;;;5033602;28;20148;-79
2023/08/20 12:18:06;;;;;;;4.10;1.70;;;36.10;42.10;;;;;;5037882;28;20077;-80
2023/08/20 12:20:35;;;;;;;5.18;2.17;;;36.60;41.30;;;;;;5013086;28;20054;-76
2023/08/20 12:23:05;;;;;;;4.63;2.10;;;37.50;41.10;;;;;;5016491;28;20052;-78
2023/08/20 12:25:34;;;;;;;6.88;2.13;;;36.40;41.60;;;;;;5017167;28;20076;-79
2023/08/20 12:28:03;;;;;;;4.90;2.22;;;36.70;42.90;;;;;;5035457;28;20065;-79
2023/08/20 12:30:31;;;;;;;6.03;1.65;;;37.80;40.70;;;;;;5018396;28;20143;-81
2023/08/20 12:32:59;;;;;;;6.32;2.03;;;37.90;40.60;;;;;;5020757;28;20156;-81
2023/08/20 12:35:26;;;;;;;4.15;1.67;;;37.60;40.70;;;;;;5022802;28;20061;-82
2023/08/20 12:37:53;;;;;;;6.35;1.88;;;37.90;40.40;;;;;;5023735;28;20077;-80
2023/08/20 12:40:20;;;;;;;5.57;1.80;;;37.90;39.40;;;;;;5019027;28;20123;-78
2023/08/20 12:42:47;;;;;;;7.03;2.00;;;38.00;39.40;;;;;;5016879;28;20053;-79